sensor_id;sensor_type;location;lat;lon;timestamp;P1;durP1;ratioP1;P2;durP2;ratioP2
69057;SDS011;56128;37.534;-122.308;2023-03-14T00:02:18;1.27;;;0.50;;
69057;SDS011;56128;37.534;-122.308;2023-03-14T00:04:44;1.55;;;0.40;;
69057;SDS011;56128;37.534;-122.308;2023-03-14T00:07:11;0.73;;;0.40;;
69057;SDS011;56128;37.534;-122.308;2023-03-14T00:09:38;1.80;;;0.45;;
69057;SDS011;56128;37.534;-122.308;2023-03-14T00:12:04;0.35;;;0.35;;
69057;SDS011;56128;37.534;-122.308;2023-03-14T00:14:32;1.90;;;0.40;;
69057;SDS011;56128;37.534;-122.308;2023-03-14T00:16:59;0.57;;;0.50;;
69057;SDS011;56128;37.534;-122.308;2023-03-14T00:19:25;0.30;;;0.22;;
69057;SDS011;56128;37.534;-122.308;2023-03-14T00:21:51;1.38;;;0.40;;
69057;SDS011;56128;37.534;-122.308;2023-03-14T00:24:17;0.30;;;0.30;;
69057;SDS011;56128;37.534;-122.308;2023-03-14T00:26:44;0.38;;;0.20;;
69057;SDS011;56128;37.534;-122.308;2023-03-14T00:29:10;0.73;;;0.30;;
69057;SDS011;56128;37.534;-122.308;2023-03-14T00:31:36;0.60;;;0.30;;
69057;SDS011;56128;37.534;-122.308;2023-03-14T00:34:04;0.73;;;0.40;;
69057;SDS011;56128;37.534;-122.308;2023-03-14T00:36:30;0.30;;;0.30;;
69057;SDS011;56128;37.534;-122.308;2023-03-14T00:38:57;0.70;;;0.40;;
69057;SDS011;56128;37.534;-122.308;2023-03-14T00:41:23;1.15;;;0.32;;
69057;SDS011;56128;37.534;-122.308;2023-03-14T00:43:49;1.27;;;0.43;;
69057;SDS011;56128;37.534;-122.308;2023-03-14T00:46:16;1.85;;;0.22;;
69057;SDS011;56128;37.534;-122.308;2023-03-14T00:48:44;0.25;;;0.25;;
69057;SDS011;56128;37.534;-122.308;2023-03-14T00:51:11;1.95;;;0.50;;
69057;SDS011;56128;37.534;-122.308;2023-03-14T00:53:40;0.65;;;0.32;;
69057;SDS011;56128;37.534;-122.308;2023-03-14T00:56:08;0.85;;;0.40;;
69057;SDS011;56128;37.534;-122.308;2023-03-14T00:58:36;0.60;;;0.20;;
69057;SDS011;56128;37.534;-122.308;2023-03-14T01:01:10;1.15;;;0.55;;
69057;SDS011;56128;37.534;-122.308;2023-03-14T01:03:41;2.17;;;0.60;;
69057;SDS011;56128;37.534;-122.308;2023-03-14T01:06:11;2.25;;;0.40;;
69057;SDS011;56128;37.534;-122.308;2023-03-14T01:08:45;0.32;;;0.32;;
69057;SDS011;56128;37.534;-122.308;2023-03-14T01:11:16;0.30;;;0.30;;
69057;SDS011;56128;37.534;-122.308;2023-03-14T01:13:48;1.73;;;0.43;;
69057;SDS011;56128;37.534;-122.308;2023-03-14T01:16:16;0.75;;;0.52;;
69057;SDS011;56128;37.534;-122.308;2023-03-14T01:18:44;1.88;;;0.40;;
69057;SDS011;56128;37.534;-122.308;2023-03-14T01:21:12;0.85;;;0.47;;
69057;SDS011;56128;37.534;-122.308;2023-03-14T01:23:40;0.30;;;0.30;;
69057;SDS011;56128;37.534;-122.308;2023-03-14T01:26:11;1.27;;;0.30;;
69057;SDS011;56128;37.534;-122.308;2023-03-14T01:28:38;1.65;;;0.40;;
69057;SDS011;56128;37.534;-122.308;2023-03-14T01:31:05;1.25;;;0.40;;
69057;SDS011;56128;37.534;-122.308;2023-03-14T01:33:33;3.08;;;0.60;;
69057;SDS011;56128;37.534;-122.308;2023-03-14T01:36:00;0.63;;;0.52;;
69057;SDS011;56128;37.534;-122.308;2023-03-14T01:38:30;2.05;;;0.50;;
69057;SDS011;56128;37.534;-122.308;2023-03-14T01:40:57;1.83;;;0.30;;
69057;SDS011;56128;37.534;-122.308;2023-03-14T01:43:24;0.52;;;0.35;;
69057;SDS011;56128;37.534;-122.308;2023-03-14T01:51:17;0.30;;;0.30;;
69057;SDS011;56128;37.534;-122.308;2023-03-14T01:53:47;0.20;;;0.20;;
69057;SDS011;56128;37.534;-122.308;2023-03-14T01:56:16;1.08;;;0.30;;
69057;SDS011;56128;37.534;-122.308;2023-03-14T01:58:45;0.28;;;0.20;;
69057;SDS011;56128;37.534;-122.308;2023-03-14T02:01:15;0.63;;;0.30;;
69057;SDS011;56128;37.534;-122.308;2023-03-14T02:03:52;1.25;;;0.20;;
69057;SDS011;56128;37.534;-122.308;2023-03-14T02:06:23;0.30;;;0.28;;
69057;SDS011;56128;37.534;-122.308;2023-03-14T02:08:52;1.55;;;0.30;;
69057;SDS011;56128;37.534;-122.308;2023-03-14T02:11:19;0.55;;;0.30;;
69057;SDS011;56128;37.534;-122.308;2023-03-14T02:13:47;0.52;;;0.30;;
69057;SDS011;56128;37.534;-122.308;2023-03-14T02:16:15;0.95;;;0.30;;
69057;SDS011;56128;37.534;-122.308;2023-03-14T02:18:41;0.30;;;0.20;;
69057;SDS011;56128;37.534;-122.308;2023-03-14T02:23:58;0.30;;;0.30;;
69057;SDS011;56128;37.534;-122.308;2023-03-14T02:29:36;0.85;;;0.40;;
69057;SDS011;56128;37.534;-122.308;2023-03-14T02:32:09;0.30;;;0.30;;
69057;SDS011;56128;37.534;-122.308;2023-03-14T02:34:36;2.08;;;0.43;;
69057;SDS011;56128;37.534;-122.308;2023-03-14T02:37:02;3.60;;;0.50;;
69057;SDS011;56128;37.534;-122.308;2023-03-14T02:39:38;2.25;;;0.30;;
69057;SDS011;56128;37.534;-122.308;2023-03-14T02:42:09;3.97;;;0.60;;
69057;SDS011;56128;37.534;-122.308;2023-03-14T02:44:46;0.20;;;0.20;;
69057;SDS011;56128;37.534;-122.308;2023-03-14T02:47:22;0.60;;;0.30;;
69057;SDS011;56128;37.534;-122.308;2023-03-14T02:49:55;1.40;;;0.47;;
69057;SDS011;56128;37.534;-122.308;2023-03-14T02:52:29;1.38;;;0.57;;
69057;SDS011;56128;37.534;-122.308;2023-03-14T02:54:55;0.20;;;0.20;;
69057;SDS011;56128;37.534;-122.308;2023-03-14T02:57:21;0.52;;;0.30;;
69057;SDS011;56128;37.534;-122.308;2023-03-14T02:59:47;0.10;;;0.10;;
69057;SDS011;56128;37.534;-122.308;2023-03-14T03:02:14;0.40;;;0.30;;
69057;SDS011;56128;37.534;-122.308;2023-03-14T03:04:40;1.58;;;0.40;;
69057;SDS011;56128;37.534;-122.308;2023-03-14T03:07:06;1.35;;;0.22;;
69057;SDS011;56128;37.534;-122.308;2023-03-14T03:09:32;1.55;;;0.30;;
69057;SDS011;56128;37.534;-122.308;2023-03-14T03:11:59;1.13;;;0.40;;
69057;SDS011;56128;37.534;-122.308;2023-03-14T03:14:25;0.50;;;0.30;;
69057;SDS011;56128;37.534;-122.308;2023-03-14T03:16:51;0.30;;;0.30;;
69057;SDS011;56128;37.534;-122.308;2023-03-14T03:19:17;1.10;;;0.32;;
69057;SDS011;56128;37.534;-122.308;2023-03-14T03:21:45;0.30;;;0.20;;
69057;SDS011;56128;37.534;-122.308;2023-03-14T03:24:11;1.00;;;0.38;;
69057;SDS011;56128;37.534;-122.308;2023-03-14T03:26:37;1.55;;;0.52;;
69057;SDS011;56128;37.534;-122.308;2023-03-14T03:29:04;0.40;;;0.40;;
69057;SDS011;56128;37.534;-122.308;2023-03-14T03:31:30;3.25;;;0.50;;
69057;SDS011;56128;37.534;-122.308;2023-03-14T03:33:57;1.88;;;0.52;;
69057;SDS011;56128;37.534;-122.308;2023-03-14T03:36:24;1.05;;;0.40;;
69057;SDS011;56128;37.534;-122.308;2023-03-14T03:38:51;0.35;;;0.30;;
69057;SDS011;56128;37.534;-122.308;2023-03-14T03:41:17;4.47;;;0.63;;
69057;SDS011;56128;37.534;-122.308;2023-03-14T03:43:44;0.52;;;0.30;;
69057;SDS011;56128;37.534;-122.308;2023-03-14T03:46:10;1.73;;;0.60;;
69057;SDS011;56128;37.534;-122.308;2023-03-14T03:48:36;1.73;;;0.38;;
69057;SDS011;56128;37.534;-122.308;2023-03-14T03:51:02;2.13;;;0.57;;
69057;SDS011;56128;37.534;-122.308;2023-03-14T03:53:29;1.25;;;0.32;;
69057;SDS011;56128;37.534;-122.308;2023-03-14T03:55:55;5.05;;;0.70;;
69057;SDS011;56128;37.534;-122.308;2023-03-14T03:58:21;0.30;;;0.30;;
69057;SDS011;56128;37.534;-122.308;2023-03-14T04:00:48;0.40;;;0.40;;
69057;SDS011;56128;37.534;-122.308;2023-03-14T04:03:14;1.88;;;0.55;;
69057;SDS011;56128;37.534;-122.308;2023-03-14T04:05:40;0.40;;;0.40;;
69057;SDS011;56128;37.534;-122.308;2023-03-14T04:08:06;2.45;;;0.88;;
69057;SDS011;56128;37.534;-122.308;2023-03-14T04:10:36;0.73;;;0.40;;
69057;SDS011;56128;37.534;-122.308;2023-03-14T04:13:02;2.92;;;0.50;;
69057;SDS011;56128;37.534;-122.308;2023-03-14T04:15:28;2.20;;;0.80;;
69057;SDS011;56128;37.534;-122.308;2023-03-14T04:17:58;3.17;;;1.10;;
69057;SDS011;56128;37.534;-122.308;2023-03-14T04:20:24;3.22;;;0.98;;
69057;SDS011;56128;37.534;-122.308;2023-03-14T04:22:50;2.50;;;1.30;;
69057;SDS011;56128;37.534;-122.308;2023-03-14T04:25:17;2.50;;;0.80;;
69057;SDS011;56128;37.534;-122.308;2023-03-14T04:27:45;2.40;;;0.80;;
69057;SDS011;56128;37.534;-122.308;2023-03-14T04:30:12;2.70;;;0.68;;
69057;SDS011;56128;37.534;-122.308;2023-03-14T04:32:38;0.68;;;0.60;;
69057;SDS011;56128;37.534;-122.308;2023-03-14T04:35:05;5.63;;;1.35;;
69057;SDS011;56128;37.534;-122.308;2023-03-14T04:37:31;4.30;;;1.20;;
69057;SDS011;56128;37.534;-122.308;2023-03-14T04:39:58;4.05;;;1.50;;
69057;SDS011;56128;37.534;-122.308;2023-03-14T04:42:24;4.97;;;1.52;;
69057;SDS011;56128;37.534;-122.308;2023-03-14T04:44:50;6.15;;;1.52;;
69057;SDS011;56128;37.534;-122.308;2023-03-14T04:47:16;4.45;;;1.60;;
69057;SDS011;56128;37.534;-122.308;2023-03-14T04:49:43;7.80;;;1.60;;
69057;SDS011;56128;37.534;-122.308;2023-03-14T04:52:09;4.10;;;1.50;;
69057;SDS011;56128;37.534;-122.308;2023-03-14T04:54:35;6.20;;;1.13;;
69057;SDS011;56128;37.534;-122.308;2023-03-14T04:57:02;3.35;;;1.10;;
69057;SDS011;56128;37.534;-122.308;2023-03-14T04:59:28;1.88;;;0.88;;
69057;SDS011;56128;37.534;-122.308;2023-03-14T05:01:54;1.85;;;0.85;;
69057;SDS011;56128;37.534;-122.308;2023-03-14T05:04:20;2.83;;;1.00;;
69057;SDS011;56128;37.534;-122.308;2023-03-14T05:06:47;1.92;;;0.60;;
69057;SDS011;56128;37.534;-122.308;2023-03-14T05:09:13;4.45;;;0.98;;
69057;SDS011;56128;37.534;-122.308;2023-03-14T05:11:40;2.45;;;1.00;;
69057;SDS011;56128;37.534;-122.308;2023-03-14T05:14:06;0.73;;;0.57;;
69057;SDS011;56128;37.534;-122.308;2023-03-14T05:16:33;0.98;;;0.80;;
69057;SDS011;56128;37.534;-122.308;2023-03-14T05:18:59;5.43;;;0.88;;
69057;SDS011;56128;37.534;-122.308;2023-03-14T05:21:26;5.93;;;1.00;;
69057;SDS011;56128;37.534;-122.308;2023-03-14T05:23:53;3.53;;;0.90;;
69057;SDS011;56128;37.534;-122.308;2023-03-14T05:26:19;2.47;;;0.80;;
69057;SDS011;56128;37.534;-122.308;2023-03-14T05:28:48;1.63;;;0.77;;
69057;SDS011;56128;37.534;-122.308;2023-03-14T05:31:14;4.50;;;0.93;;
69057;SDS011;56128;37.534;-122.308;2023-03-14T05:33:40;2.80;;;1.17;;
69057;SDS011;56128;37.534;-122.308;2023-03-14T05:36:07;2.97;;;0.80;;
69057;SDS011;56128;37.534;-122.308;2023-03-14T05:38:33;3.08;;;0.80;;
69057;SDS011;56128;37.534;-122.308;2023-03-14T05:40:59;5.20;;;1.88;;
69057;SDS011;56128;37.534;-122.308;2023-03-14T05:43:26;4.32;;;0.95;;
69057;SDS011;56128;37.534;-122.308;2023-03-14T05:45:52;1.50;;;0.80;;
69057;SDS011;56128;37.534;-122.308;2023-03-14T05:48:18;1.88;;;0.70;;
69057;SDS011;56128;37.534;-122.308;2023-03-14T05:50:45;4.03;;;1.08;;
69057;SDS011;56128;37.534;-122.308;2023-03-14T05:53:11;3.65;;;1.00;;
69057;SDS011;56128;37.534;-122.308;2023-03-14T05:55:38;4.78;;;0.93;;
69057;SDS011;56128;37.534;-122.308;2023-03-14T05:58:04;6.72;;;1.10;;
69057;SDS011;56128;37.534;-122.308;2023-03-14T06:00:30;4.45;;;0.98;;
69057;SDS011;56128;37.534;-122.308;2023-03-14T06:02:57;3.95;;;1.02;;
69057;SDS011;56128;37.534;-122.308;2023-03-14T06:05:23;2.10;;;1.23;;
69057;SDS011;56128;37.534;-122.308;2023-03-14T06:07:49;1.85;;;1.10;;
69057;SDS011;56128;37.534;-122.308;2023-03-14T06:10:15;5.43;;;0.93;;
69057;SDS011;56128;37.534;-122.308;2023-03-14T06:12:42;4.40;;;1.02;;
69057;SDS011;56128;37.534;-122.308;2023-03-14T06:15:08;2.90;;;0.80;;
69057;SDS011;56128;37.534;-122.308;2023-03-14T06:17:34;5.75;;;1.10;;
69057;SDS011;56128;37.534;-122.308;2023-03-14T06:20:01;2.20;;;0.85;;
69057;SDS011;56128;37.534;-122.308;2023-03-14T06:22:27;2.53;;;0.73;;
69057;SDS011;56128;37.534;-122.308;2023-03-14T06:24:53;4.78;;;0.90;;
69057;SDS011;56128;37.534;-122.308;2023-03-14T06:27:19;3.75;;;0.88;;
69057;SDS011;56128;37.534;-122.308;2023-03-14T06:29:45;4.50;;;0.90;;
69057;SDS011;56128;37.534;-122.308;2023-03-14T06:32:12;2.85;;;1.00;;
69057;SDS011;56128;37.534;-122.308;2023-03-14T06:34:38;3.03;;;0.90;;
69057;SDS011;56128;37.534;-122.308;2023-03-14T06:37:04;3.95;;;1.13;;
69057;SDS011;56128;37.534;-122.308;2023-03-14T06:39:31;2.67;;;0.60;;
69057;SDS011;56128;37.534;-122.308;2023-03-14T06:41:57;2.55;;;0.90;;
69057;SDS011;56128;37.534;-122.308;2023-03-14T06:44:23;2.97;;;0.90;;
69057;SDS011;56128;37.534;-122.308;2023-03-14T06:46:49;1.73;;;0.95;;
69057;SDS011;56128;37.534;-122.308;2023-03-14T06:49:15;6.45;;;1.20;;
69057;SDS011;56128;37.534;-122.308;2023-03-14T06:51:42;3.38;;;1.08;;
69057;SDS011;56128;37.534;-122.308;2023-03-14T06:54:08;4.53;;;0.98;;
69057;SDS011;56128;37.534;-122.308;2023-03-14T06:56:34;5.05;;;1.60;;
69057;SDS011;56128;37.534;-122.308;2023-03-14T06:59:00;1.92;;;0.80;;
69057;SDS011;56128;37.534;-122.308;2023-03-14T07:01:27;2.47;;;0.80;;
69057;SDS011;56128;37.534;-122.308;2023-03-14T07:03:55;3.38;;;0.57;;
69057;SDS011;56128;37.534;-122.308;2023-03-14T07:06:21;2.95;;;0.93;;
69057;SDS011;56128;37.534;-122.308;2023-03-14T07:08:48;3.08;;;0.93;;
69057;SDS011;56128;37.534;-122.308;2023-03-14T07:11:14;1.75;;;0.63;;
69057;SDS011;56128;37.534;-122.308;2023-03-14T07:13:40;2.97;;;0.70;;
69057;SDS011;56128;37.534;-122.308;2023-03-14T07:16:07;3.08;;;0.90;;
69057;SDS011;56128;37.534;-122.308;2023-03-14T07:18:33;3.50;;;0.70;;
69057;SDS011;56128;37.534;-122.308;2023-03-14T07:21:00;1.50;;;0.68;;
69057;SDS011;56128;37.534;-122.308;2023-03-14T07:23:26;2.35;;;0.60;;
69057;SDS011;56128;37.534;-122.308;2023-03-14T07:25:52;2.47;;;0.60;;
69057;SDS011;56128;37.534;-122.308;2023-03-14T07:28:19;1.10;;;0.60;;
69057;SDS011;56128;37.534;-122.308;2023-03-14T07:30:47;1.70;;;0.50;;
69057;SDS011;56128;37.534;-122.308;2023-03-14T07:33:14;4.35;;;0.82;;
69057;SDS011;56128;37.534;-122.308;2023-03-14T07:35:41;2.53;;;0.90;;
69057;SDS011;56128;37.534;-122.308;2023-03-14T07:38:07;1.98;;;0.80;;
69057;SDS011;56128;37.534;-122.308;2023-03-14T07:40:33;1.70;;;0.80;;
69057;SDS011;56128;37.534;-122.308;2023-03-14T07:43:00;3.60;;;0.93;;
69057;SDS011;56128;37.534;-122.308;2023-03-14T07:45:26;1.85;;;0.70;;
69057;SDS011;56128;37.534;-122.308;2023-03-14T07:47:53;2.78;;;0.82;;
69057;SDS011;56128;37.534;-122.308;2023-03-14T07:50:23;3.47;;;0.60;;
69057;SDS011;56128;37.534;-122.308;2023-03-14T07:52:50;2.03;;;0.70;;
69057;SDS011;56128;37.534;-122.308;2023-03-14T07:55:16;2.35;;;0.65;;
69057;SDS011;56128;37.534;-122.308;2023-03-14T07:57:43;1.42;;;0.70;;
69057;SDS011;56128;37.534;-122.308;2023-03-14T08:00:09;2.13;;;0.70;;
69057;SDS011;56128;37.534;-122.308;2023-03-14T08:02:36;1.85;;;0.80;;
69057;SDS011;56128;37.534;-122.308;2023-03-14T08:05:03;0.80;;;0.60;;
69057;SDS011;56128;37.534;-122.308;2023-03-14T08:07:29;1.58;;;0.70;;
69057;SDS011;56128;37.534;-122.308;2023-03-14T08:09:55;2.83;;;0.90;;
69057;SDS011;56128;37.534;-122.308;2023-03-14T08:12:22;1.27;;;0.47;;
69057;SDS011;56128;37.534;-122.308;2023-03-14T08:14:48;3.63;;;0.70;;
69057;SDS011;56128;37.534;-122.308;2023-03-14T08:17:14;3.17;;;0.70;;
69057;SDS011;56128;37.534;-122.308;2023-03-14T08:19:43;0.50;;;0.40;;
69057;SDS011;56128;37.534;-122.308;2023-03-14T08:22:09;1.38;;;0.70;;
69057;SDS011;56128;37.534;-122.308;2023-03-14T08:24:36;1.17;;;0.60;;
69057;SDS011;56128;37.534;-122.308;2023-03-14T08:27:02;2.67;;;0.50;;
69057;SDS011;56128;37.534;-122.308;2023-03-14T08:29:28;3.53;;;0.55;;
69057;SDS011;56128;37.534;-122.308;2023-03-14T08:31:54;5.63;;;0.63;;
69057;SDS011;56128;37.534;-122.308;2023-03-14T08:34:20;2.90;;;1.02;;
69057;SDS011;56128;37.534;-122.308;2023-03-14T08:36:47;1.02;;;0.80;;
69057;SDS011;56128;37.534;-122.308;2023-03-14T08:39:13;0.65;;;0.43;;
69057;SDS011;56128;37.534;-122.308;2023-03-14T08:41:39;1.65;;;0.70;;
69057;SDS011;56128;37.534;-122.308;2023-03-14T08:44:08;0.80;;;0.50;;
69057;SDS011;56128;37.534;-122.308;2023-03-14T08:46:36;1.08;;;0.57;;
69057;SDS011;56128;37.534;-122.308;2023-03-14T08:49:03;1.60;;;0.50;;
69057;SDS011;56128;37.534;-122.308;2023-03-14T08:51:29;4.30;;;0.75;;
69057;SDS011;56128;37.534;-122.308;2023-03-14T08:53:55;2.20;;;0.70;;
69057;SDS011;56128;37.534;-122.308;2023-03-14T08:56:21;1.60;;;0.60;;
69057;SDS011;56128;37.534;-122.308;2023-03-14T08:58:48;0.47;;;0.45;;
69057;SDS011;56128;37.534;-122.308;2023-03-14T09:01:14;2.22;;;0.50;;
69057;SDS011;56128;37.534;-122.308;2023-03-14T09:03:40;0.85;;;0.57;;
69057;SDS011;56128;37.534;-122.308;2023-03-14T09:06:07;1.95;;;0.65;;
69057;SDS011;56128;37.534;-122.308;2023-03-14T09:08:35;1.48;;;0.50;;
69057;SDS011;56128;37.534;-122.308;2023-03-14T09:11:02;1.60;;;0.47;;
69057;SDS011;56128;37.534;-122.308;2023-03-14T09:13:28;2.15;;;0.70;;
69057;SDS011;56128;37.534;-122.308;2023-03-14T09:15:54;2.53;;;0.50;;
69057;SDS011;56128;37.534;-122.308;2023-03-14T09:18:22;0.95;;;0.57;;
69057;SDS011;56128;37.534;-122.308;2023-03-14T09:20:49;2.88;;;0.77;;
69057;SDS011;56128;37.534;-122.308;2023-03-14T09:23:15;1.63;;;0.70;;
69057;SDS011;56128;37.534;-122.308;2023-03-14T09:25:41;3.33;;;0.90;;
69057;SDS011;56128;37.534;-122.308;2023-03-14T09:28:07;4.18;;;0.90;;
69057;SDS011;56128;37.534;-122.308;2023-03-14T09:30:34;2.25;;;0.70;;
69057;SDS011;56128;37.534;-122.308;2023-03-14T09:33:00;3.63;;;0.82;;
69057;SDS011;56128;37.534;-122.308;2023-03-14T09:35:26;2.97;;;0.70;;
69057;SDS011;56128;37.534;-122.308;2023-03-14T09:37:52;4.00;;;0.82;;
69057;SDS011;56128;37.534;-122.308;2023-03-14T09:40:19;2.47;;;0.73;;
69057;SDS011;56128;37.534;-122.308;2023-03-14T09:42:47;1.45;;;0.80;;
69057;SDS011;56128;37.534;-122.308;2023-03-14T09:45:25;3.58;;;0.82;;
69057;SDS011;56128;37.534;-122.308;2023-03-14T09:47:59;2.75;;;0.85;;
69057;SDS011;56128;37.534;-122.308;2023-03-14T09:50:48;4.25;;;1.08;;
69057;SDS011;56128;37.534;-122.308;2023-03-14T09:53:18;3.00;;;0.77;;
69057;SDS011;56128;37.534;-122.308;2023-03-14T09:55:48;2.47;;;1.00;;
69057;SDS011;56128;37.534;-122.308;2023-03-14T09:58:20;2.85;;;0.93;;
69057;SDS011;56128;37.534;-122.308;2023-03-14T10:00:49;1.73;;;0.80;;
69057;SDS011;56128;37.534;-122.308;2023-03-14T10:03:25;3.05;;;1.23;;
69057;SDS011;56128;37.534;-122.308;2023-03-14T10:05:55;2.85;;;0.80;;
69057;SDS011;56128;37.534;-122.308;2023-03-14T10:08:22;1.92;;;0.80;;
69057;SDS011;56128;37.534;-122.308;2023-03-14T10:10:48;4.57;;;0.80;;
69057;SDS011;56128;37.534;-122.308;2023-03-14T10:13:16;3.97;;;0.80;;
69057;SDS011;56128;37.534;-122.308;2023-03-14T10:16:00;5.75;;;0.90;;
69057;SDS011;56128;37.534;-122.308;2023-03-14T10:18:29;1.50;;;0.68;;
69057;SDS011;56128;37.534;-122.308;2023-03-14T10:21:03;2.83;;;0.90;;
69057;SDS011;56128;37.534;-122.308;2023-03-14T10:23:46;2.80;;;0.80;;
69057;SDS011;56128;37.534;-122.308;2023-03-14T10:26:14;2.40;;;0.90;;
69057;SDS011;56128;37.534;-122.308;2023-03-14T10:28:46;3.90;;;0.85;;
69057;SDS011;56128;37.534;-122.308;2023-03-14T10:31:14;2.22;;;1.33;;
69057;SDS011;56128;37.534;-122.308;2023-03-14T10:33:40;3.85;;;0.90;;
69057;SDS011;56128;37.534;-122.308;2023-03-14T10:36:17;2.97;;;0.90;;
69057;SDS011;56128;37.534;-122.308;2023-03-14T10:38:47;1.15;;;0.77;;
69057;SDS011;56128;37.534;-122.308;2023-03-14T10:41:19;2.17;;;0.80;;
69057;SDS011;56128;37.534;-122.308;2023-03-14T10:43:50;2.47;;;0.80;;
69057;SDS011;56128;37.534;-122.308;2023-03-14T10:46:19;3.17;;;0.82;;
69057;SDS011;56128;37.534;-122.308;2023-03-14T10:48:46;1.48;;;0.90;;
69057;SDS011;56128;37.534;-122.308;2023-03-14T10:54:04;3.70;;;0.80;;
69057;SDS011;56128;37.534;-122.308;2023-03-14T10:56:39;4.20;;;0.90;;
69057;SDS011;56128;37.534;-122.308;2023-03-14T10:59:13;2.42;;;0.70;;
69057;SDS011;56128;37.534;-122.308;2023-03-14T11:09:45;2.20;;;0.88;;
69057;SDS011;56128;37.534;-122.308;2023-03-14T11:12:35;2.50;;;0.80;;
69057;SDS011;56128;37.534;-122.308;2023-03-14T11:17:58;5.10;;;1.30;;
69057;SDS011;56128;37.534;-122.308;2023-03-14T11:20:52;3.47;;;1.08;;
69057;SDS011;56128;37.534;-122.308;2023-03-14T11:26:19;4.07;;;1.23;;
69057;SDS011;56128;37.534;-122.308;2023-03-14T11:29:21;3.17;;;1.10;;
69057;SDS011;56128;37.534;-122.308;2023-03-14T11:32:19;2.30;;;1.08;;
69057;SDS011;56128;37.534;-122.308;2023-03-14T11:34:53;5.57;;;1.20;;
69057;SDS011;56128;37.534;-122.308;2023-03-14T11:37:28;5.35;;;1.60;;
69057;SDS011;56128;37.534;-122.308;2023-03-14T11:40:14;4.15;;;1.10;;
69057;SDS011;56128;37.534;-122.308;2023-03-14T11:42:54;3.10;;;1.10;;
69057;SDS011;56128;37.534;-122.308;2023-03-14T11:45:30;4.47;;;1.00;;
69057;SDS011;56128;37.534;-122.308;2023-03-14T11:50:45;6.15;;;1.20;;
69057;SDS011;56128;37.534;-122.308;2023-03-14T11:53:34;2.80;;;1.33;;
69057;SDS011;56128;37.534;-122.308;2023-03-14T11:56:31;2.53;;;1.20;;
69057;SDS011;56128;37.534;-122.308;2023-03-14T11:59:01;1.60;;;0.90;;
69057;SDS011;56128;37.534;-122.308;2023-03-14T12:01:40;8.15;;;1.30;;
69057;SDS011;56128;37.534;-122.308;2023-03-14T12:07:36;2.83;;;1.00;;
69057;SDS011;56128;37.534;-122.308;2023-03-14T12:10:25;3.50;;;1.20;;
69057;SDS011;56128;37.534;-122.308;2023-03-14T12:12:52;3.08;;;1.00;;
69057;SDS011;56128;37.534;-122.308;2023-03-14T12:15:20;5.47;;;1.30;;
69057;SDS011;56128;37.534;-122.308;2023-03-14T12:17:57;7.63;;;1.50;;
69057;SDS011;56128;37.534;-122.308;2023-03-14T12:20:24;2.85;;;1.10;;
69057;SDS011;56128;37.534;-122.308;2023-03-14T12:22:55;3.00;;;1.08;;
69057;SDS011;56128;37.534;-122.308;2023-03-14T12:25:27;3.58;;;1.10;;
69057;SDS011;56128;37.534;-122.308;2023-03-14T12:30:32;3.60;;;1.20;;
69057;SDS011;56128;37.534;-122.308;2023-03-14T12:35:47;3.92;;;1.17;;
69057;SDS011;56128;37.534;-122.308;2023-03-14T12:43:40;2.78;;;1.30;;
69057;SDS011;56128;37.534;-122.308;2023-03-14T12:46:19;3.08;;;1.20;;
69057;SDS011;56128;37.534;-122.308;2023-03-14T12:51:34;5.32;;;1.38;;
69057;SDS011;56128;37.534;-122.308;2023-03-14T12:59:50;2.55;;;1.17;;
69057;SDS011;56128;37.534;-122.308;2023-03-14T13:02:38;4.35;;;1.23;;
69057;SDS011;56128;37.534;-122.308;2023-03-14T13:05:11;5.63;;;1.30;;
69057;SDS011;56128;37.534;-122.308;2023-03-14T13:12:57;3.45;;;1.08;;
69057;SDS011;56128;37.534;-122.308;2023-03-14T13:15:45;4.50;;;1.00;;
69057;SDS011;56128;37.534;-122.308;2023-03-14T13:21:18;5.18;;;1.10;;
69057;SDS011;56128;37.534;-122.308;2023-03-14T13:26:37;3.13;;;0.93;;
69057;SDS011;56128;37.534;-122.308;2023-03-14T13:29:25;2.25;;;0.82;;
69057;SDS011;56128;37.534;-122.308;2023-03-14T13:31:57;1.92;;;0.90;;
69057;SDS011;56128;37.534;-122.308;2023-03-14T13:34:26;4.45;;;1.00;;
69057;SDS011;56128;37.534;-122.308;2023-03-14T13:36:55;3.00;;;1.00;;
69057;SDS011;56128;37.534;-122.308;2023-03-14T13:39:23;1.55;;;0.65;;
69057;SDS011;56128;37.534;-122.308;2023-03-14T13:41:51;2.83;;;0.80;;
69057;SDS011;56128;37.534;-122.308;2023-03-14T13:44:29;2.38;;;1.10;;
69057;SDS011;56128;37.534;-122.308;2023-03-14T13:47:02;3.28;;;1.10;;
69057;SDS011;56128;37.534;-122.308;2023-03-14T13:49:30;2.05;;;0.90;;
69057;SDS011;56128;37.534;-122.308;2023-03-14T13:52:00;6.47;;;0.90;;
69057;SDS011;56128;37.534;-122.308;2023-03-14T13:54:28;2.25;;;0.80;;
69057;SDS011;56128;37.534;-122.308;2023-03-14T13:57:00;3.17;;;0.77;;
69057;SDS011;56128;37.534;-122.308;2023-03-14T13:59:29;2.55;;;0.77;;
69057;SDS011;56128;37.534;-122.308;2023-03-14T14:01:57;2.42;;;0.90;;
69057;SDS011;56128;37.534;-122.308;2023-03-14T14:04:26;2.10;;;0.90;;
69057;SDS011;56128;37.534;-122.308;2023-03-14T14:06:55;1.73;;;0.93;;
69057;SDS011;56128;37.534;-122.308;2023-03-14T14:09:27;1.10;;;0.70;;
69057;SDS011;56128;37.534;-122.308;2023-03-14T14:17:25;3.17;;;0.90;;
69057;SDS011;56128;37.534;-122.308;2023-03-14T14:20:08;1.48;;;0.80;;
69057;SDS011;56128;37.534;-122.308;2023-03-14T14:23:21;2.42;;;1.00;;
69057;SDS011;56128;37.534;-122.308;2023-03-14T14:25:51;2.33;;;0.90;;
69057;SDS011;56128;37.534;-122.308;2023-03-14T14:28:26;3.67;;;1.40;;
69057;SDS011;56128;37.534;-122.308;2023-03-14T14:31:03;2.22;;;1.00;;
69057;SDS011;56128;37.534;-122.308;2023-03-14T14:33:37;5.35;;;1.40;;
69057;SDS011;56128;37.534;-122.308;2023-03-14T14:36:16;1.35;;;1.00;;
69057;SDS011;56128;37.534;-122.308;2023-03-14T14:38:49;1.65;;;0.82;;
69057;SDS011;56128;37.534;-122.308;2023-03-14T14:41:20;3.25;;;1.13;;
69057;SDS011;56128;37.534;-122.308;2023-03-14T14:43:46;2.78;;;1.10;;
69057;SDS011;56128;37.534;-122.308;2023-03-14T14:46:15;3.38;;;1.10;;
69057;SDS011;56128;37.534;-122.308;2023-03-14T14:48:44;2.17;;;1.25;;
69057;SDS011;56128;37.534;-122.308;2023-03-14T14:51:21;3.13;;;1.10;;
69057;SDS011;56128;37.534;-122.308;2023-03-14T14:53:59;2.08;;;0.88;;
69057;SDS011;56128;37.534;-122.308;2023-03-14T14:56:28;1.75;;;1.33;;
69057;SDS011;56128;37.534;-122.308;2023-03-14T14:58:58;6.05;;;1.00;;
69057;SDS011;56128;37.534;-122.308;2023-03-14T15:01:34;1.85;;;1.00;;
69057;SDS011;56128;37.534;-122.308;2023-03-14T15:04:12;1.08;;;0.70;;
69057;SDS011;56128;37.534;-122.308;2023-03-14T15:06:43;3.10;;;0.90;;
69057;SDS011;56128;37.534;-122.308;2023-03-14T15:09:13;2.25;;;0.73;;
69057;SDS011;56128;37.534;-122.308;2023-03-14T15:11:41;4.50;;;1.55;;
69057;SDS011;56128;37.534;-122.308;2023-03-14T15:14:08;0.70;;;0.60;;
69057;SDS011;56128;37.534;-122.308;2023-03-14T15:16:34;2.65;;;0.40;;
69057;SDS011;56128;37.534;-122.308;2023-03-14T15:19:02;1.00;;;0.95;;
69057;SDS011;56128;37.534;-122.308;2023-03-14T15:21:34;0.77;;;0.40;;
69057;SDS011;56128;37.534;-122.308;2023-03-14T15:24:01;2.53;;;0.70;;
69057;SDS011;56128;37.534;-122.308;2023-03-14T15:26:27;3.13;;;0.80;;
69057;SDS011;56128;37.534;-122.308;2023-03-14T15:28:54;2.38;;;0.80;;
69057;SDS011;56128;37.534;-122.308;2023-03-14T15:31:20;1.02;;;0.63;;